Time;durP1;ratioP1;P1;durP2;ratioP2;P2;SDS_P1;SDS_P2;PMS_P1;PMS_P2;Temp;Humidity;BMP_temperature;BMP_pressure;BME280_temperature;BME280_humidity;BME280_pressure;Samples;Min_cycle;Max_cycle;Signal;HPM_P1;HPM_P2
2022/10/19 00:01:57;;;;;;;;;17.00;14.50;;;;;16.99;79.37;99981.19;5050120;28;45444;-78
2022/10/19 00:04:22;;;;;;;;;15.50;15.00;;;;;16.97;79.50;99982.19;5039507;28;45399;-78
2022/10/19 00:06:48;;;;;;;;;16.50;13.50;;;;;16.96;79.18;99978.69;5057029;28;45365;-78
2022/10/19 00:09:16;;;;;;;;;13.00;13.00;;;;;16.96;78.97;99981.34;5038483;28;45491;-78
2022/10/19 00:11:44;;;;;;;;;15.00;13.40;;;;;16.94;79.29;99983.22;5044067;28;45605;-78
2022/10/19 00:14:13;;;;;;;;;17.25;14.75;;;;;16.92;79.15;99982.47;5052864;28;45405;-78
2022/10/19 00:16:39;;;;;;;;;15.25;13.75;;;;;16.91;79.52;99979.88;5047626;28;46231;-78
2022/10/19 00:19:08;;;;;;;;;15.25;15.00;;;;;16.90;79.29;99978.16;5047260;28;45521;-78
2022/10/19 00:21:34;;;;;;;;;12.75;12.50;;;;;16.87;79.56;99980.97;5051415;28;45403;-78
2022/10/19 00:24:00;;;;;;;;;17.25;15.50;;;;;16.86;79.37;99982.78;5052617;28;45424;-79
2022/10/19 00:26:26;;;;;;;;;12.00;11.50;;;;;16.85;79.46;99977.53;5044121;28;45456;-78
2022/10/19 00:28:56;;;;;;;;;15.00;13.50;;;;;16.85;79.07;99982.84;5068974;27;45778;-78
2022/10/19 00:31:22;;;;;;;;;14.40;13.40;;;;;16.83;78.93;99980.25;5051713;28;45413;-78
2022/10/19 00:33:47;;;;;;;;;17.75;15.00;;;;;16.83;78.74;99974.06;5054639;28;45359;-78
2022/10/19 00:36:25;;;;;;;;;15.75;14.75;;;;;16.82;78.34;99981.19;5062319;28;45386;-78
2022/10/19 00:38:53;;;;;;;;;11.80;10.20;;;;;16.82;77.65;99991.00;5054118;28;45457;-78
2022/10/19 00:41:20;;;;;;;;;12.40;10.60;;;;;16.81;77.78;99984.81;5041208;28;46066;-78
2022/10/19 00:43:54;;;;;;;;;12.50;12.50;;;;;16.81;77.06;99981.28;5049120;28;45734;-78
2022/10/19 00:46:19;;;;;;;;;13.50;13.50;;;;;16.79;76.53;99980.50;5053546;28;45333;-78
2022/10/19 00:48:45;;;;;;;;;10.00;10.00;;;;;16.77;75.93;99977.03;5054141;28;46139;-78
2022/10/19 00:51:11;;;;;;;;;11.75;11.75;;;;;16.75;76.01;99985.16;5046449;28;45379;-78
2022/10/19 00:53:37;;;;;;;;;7.40;7.40;;;;;16.72;75.46;99983.50;5045396;28;45378;-79
2022/10/19 00:56:07;;;;;;;;;11.25;11.00;;;;;16.69;75.93;99980.97;5054123;28;45471;-78
2022/10/19 00:58:33;;;;;;;;;13.00;11.00;;;;;16.67;75.82;99987.31;5044243;28;46243;-78
2022/10/19 01:01:02;;;;;;;;;13.40;13.00;;;;;16.64;75.92;99991.00;5043184;28;45596;-78
2022/10/19 01:03:27;;;;;;;;;10.75;10.75;;;;;16.62;76.26;99991.97;5040570;28;45459;-78
2022/10/19 01:05:53;;;;;;;;;12.25;12.25;;;;;16.58;76.36;99988.63;5041366;28;45409;-78
2022/10/19 01:08:19;;;;;;;;;10.00;10.00;;;;;16.55;76.42;99979.94;5038387;28;46382;-78
2022/10/19 01:11:01;;;;;;;;;13.20;12.60;;;;;16.53;76.37;99981.81;5042923;28;45527;-78
2022/10/19 01:13:42;;;;;;;;;13.75;12.00;;;;;16.48;77.06;99976.72;5047768;28;45609;-78
2022/10/19 01:16:30;;;;;;;;;12.50;12.00;;;;;16.45;77.11;99971.53;5047484;28;45461;-79
2022/10/19 01:19:46;;;;;;;;;15.00;12.25;;;;;16.42;77.65;99969.06;5043169;28;46687;-77
2022/10/19 01:22:37;;;;;;;;;14.40;13.20;;;;;16.40;78.29;99968.28;5040679;28;45490;-78
2022/10/19 01:25:17;;;;;;;;;13.50;13.50;;;;;16.38;79.78;99970.13;5047418;28;45536;-77
2022/10/19 01:27:45;;;;;;;;;16.50;14.75;;;;;16.33;80.05;99959.72;5042400;28;45515;-78
2022/10/19 01:30:15;;;;;;;;;15.00;15.00;;;;;16.31;80.82;99958.94;5043106;28;45709;-78
2022/10/19 01:32:53;;;;;;;;;17.75;16.25;;;;;16.29;81.27;99970.59;5056482;28;45441;-78
2022/10/19 01:35:28;;;;;;;;;22.00;17.25;;;;;16.27;81.15;99967.13;5068926;28;45449;-78
2022/10/19 01:38:08;;;;;;;;;16.00;15.00;;;;;16.24;81.31;99957.53;5053459;28;45539;-78
2022/10/19 01:41:09;;;;;;;;;17.75;13.75;;;;;16.21;81.63;99964.81;5060640;28;47585;-78
2022/10/19 01:43:38;;;;;;;;;15.00;14.00;;;;;16.19;81.36;99958.69;5046622;28;45595;-78
2022/10/19 01:46:10;;;;;;;;;18.25;15.25;;;;;16.17;81.92;99957.91;5047025;28;45329;-78
2022/10/19 01:48:43;;;;;;;;;17.00;15.25;;;;;16.15;81.80;99957.13;5059552;28;46402;-78
2022/10/19 01:51:29;;;;;;;;;14.75;14.00;;;;;16.14;82.35;99950.94;5045888;28;45553;-78
2022/10/19 01:53:58;;;;;;;;;16.75;14.25;;;;;16.13;81.97;99953.66;5046321;28;45361;-78
2022/10/19 01:56:26;;;;;;;;;17.50;17.50;;;;;16.11;82.36;99948.41;5047356;28;45297;-80
2022/10/19 01:58:56;;;;;;;;;16.25;15.75;;;;;16.10;82.36;99954.66;5045314;28;45543;-78
2022/10/19 02:01:26;;;;;;;;;19.00;15.75;;;;;16.10;82.43;99945.81;5037366;28;45806;-78
2022/10/19 02:03:53;;;;;;;;;17.00;15.50;;;;;16.09;82.60;99946.78;5042880;28;45634;-79
2022/10/19 02:06:19;;;;;;;;;19.50;15.75;;;;;16.05;82.64;99938.09;5051105;28;45496;-78
2022/10/19 02:08:50;;;;;;;;;14.25;13.75;;;;;16.02;82.62;99939.09;5050715;28;45353;-78
2022/10/19 02:11:17;;;;;;;;;18.25;12.50;;;;;16.00;82.90;99938.31;5047261;28;46352;-78
2022/10/19 02:13:45;;;;;;;;;14.75;14.25;;;;;15.98;83.09;99936.66;5050620;28;45249;-78
2022/10/19 02:16:21;;;;;;;;;15.25;14.50;;;;;15.94;83.04;99941.25;5049952;28;45460;-78
2022/10/19 02:18:51;;;;;;;;;14.75;14.00;;;;;15.93;83.15;99939.53;5051017;28;45278;-78
2022/10/19 02:21:17;;;;;;;;;12.00;12.00;;;;;15.90;83.18;99931.75;5042687;28;47264;-78
2022/10/19 02:23:43;;;;;;;;;16.75;14.00;;;;;15.87;83.44;99931.03;5050030;28;45456;-78
2022/10/19 02:26:09;;;;;;;;;19.00;15.75;;;;;15.85;83.34;99927.56;5042379;28;45450;-78
2022/10/19 02:28:35;;;;;;;;;16.75;14.50;;;;;15.84;83.75;99924.03;5047182;28;45464;-78
2022/10/19 02:31:00;;;;;;;;;19.75;16.75;;;;;15.83;83.48;99924.13;5046572;28;45546;-78
2022/10/19 02:33:27;;;;;;;;;14.25;13.25;;;;;15.81;83.85;99924.19;5044524;28;45467;-78
2022/10/19 02:35:53;;;;;;;;;14.75;12.25;;;;;15.81;83.82;99921.53;5045702;28;45184;-79
2022/10/19 02:38:21;;;;;;;;;16.50;12.25;;;;;15.80;83.73;99921.59;5046927;28;45433;-79
2022/10/19 02:40:58;;;;;;;;;17.50;16.25;;;;;15.79;83.66;99922.53;5044214;28;46272;-78
2022/10/19 02:43:27;;;;;;;;;14.00;14.00;;;;;15.76;84.29;99917.34;5048463;28;45476;-78
2022/10/19 02:46:03;;;;;;;;;19.50;18.75;;;;;15.75;84.23;99913.88;5053026;28;45374;-78
2022/10/19 02:48:31;;;;;;;;;17.25;16.25;;;;;15.73;84.38;99907.75;5039361;28;45434;-78
2022/10/19 02:50:57;;;;;;;;;17.75;15.50;;;;;15.71;84.63;99904.31;5044248;28;46212;-79
2022/10/19 02:53:22;;;;;;;;;16.00;13.50;;;;;15.68;84.39;99902.66;5041773;28;45423;-78
2022/10/19 02:55:48;;;;;;;;;10.50;10.25;;;;;15.65;83.99;99901.94;5050629;28;45499;-78
2022/10/19 02:58:14;;;;;;;;;16.25;16.25;;;;;15.61;84.18;99901.22;5046341;28;45474;-78
2022/10/19 03:00:40;;;;;;;;;16.75;14.25;;;;;15.59;84.53;99899.56;5048068;28;45549;-78
2022/10/19 03:03:05;;;;;;;;;19.50;17.25;;;;;15.57;84.49;99898.81;5047824;28;45862;-79
2022/10/19 03:05:31;;;;;;;;;15.75;13.00;;;;;15.55;84.45;99895.31;5051015;28;45351;-78
2022/10/19 03:07:56;;;;;;;;;16.00;15.75;;;;;15.53;84.68;99891.88;5045766;28;45457;-78
2022/10/19 03:10:22;;;;;;;;;13.25;12.50;;;;;15.50;84.75;99887.56;5040302;28;45541;-78
2022/10/19 03:12:47;;;;;;;;;15.75;15.50;;;;;15.49;84.78;99895.59;5042994;28;45289;-78
2022/10/19 03:15:17;;;;;;;;;16.75;16.00;;;;;15.47;84.97;99897.47;5050738;28;45390;-78
2022/10/19 03:17:42;;;;;;;;;15.50;13.75;;;;;15.47;85.19;99897.47;5049471;28;45470;-78
2022/10/19 03:20:09;;;;;;;;;16.00;13.75;;;;;15.45;85.17;99888.72;5049575;28;46178;-78
2022/10/19 03:22:34;;;;;;;;;15.25;14.50;;;;;15.43;85.57;99888.78;5044464;28;45371;-78
2022/10/19 03:24:59;;;;;;;;;17.50;16.25;;;;;15.43;85.46;99882.59;5042309;28;45499;-79
2022/10/19 03:27:25;;;;;;;;;15.75;14.50;;;;;15.42;85.40;99884.41;5077220;27;45383;-78
2022/10/19 03:29:50;;;;;;;;;17.25;17.25;;;;;15.41;85.35;99880.03;5041443;28;46445;-79
2022/10/19 03:32:16;;;;;;;;;15.50;14.75;;;;;15.39;86.03;99878.41;5042537;28;45569;-78
2022/10/19 03:34:41;;;;;;;;;16.00;15.25;;;;;15.37;85.75;99883.78;5049354;28;45391;-78
2022/10/19 03:37:07;;;;;;;;;18.50;15.25;;;;;15.36;85.70;99884.72;5052938;28;45368;-78
2022/10/19 03:39:33;;;;;;;;;18.50;13.75;;;;;15.34;86.02;99884.78;5048127;28;47447;-78
2022/10/19 03:41:58;;;;;;;;;17.00;13.50;;;;;15.33;85.51;99882.19;5046829;28;45408;-79
2022/10/19 03:44:23;;;;;;;;;19.00;17.75;;;;;15.31;86.02;99876.09;5049643;28;45448;-79
2022/10/19 03:46:49;;;;;;;;;22.00;17.25;;;;;15.30;85.84;99882.34;5047646;28;45518;-78
2022/10/19 03:49:14;;;;;;;;;16.00;14.75;;;;;15.27;85.89;99882.47;5048936;28;46548;-79
2022/10/19 03:51:40;;;;;;;;;20.25;18.75;;;;;15.25;86.03;99881.69;5041581;28;45666;-78
2022/10/19 03:54:08;;;;;;;;;16.00;16.00;;;;;15.23;85.68;99880.91;5053520;28;45377;-79
2022/10/19 03:56:34;;;;;;;;;19.75;18.50;;;;;15.22;86.13;99885.38;5053030;28;45459;-78
2022/10/19 03:59:01;;;;;;;;;16.25;15.75;;;;;15.20;86.04;99881.91;5044770;28;45519;-78
2022/10/19 04:01:30;;;;;;;;;18.60;17.40;;;;;15.20;85.96;99886.38;5044243;28;45542;-78
2022/10/19 04:03:58;;;;;;;;;21.75;17.00;;;;;15.18;86.14;99888.22;5045286;28;45216;-78
2022/10/19 04:06:27;;;;;;;;;19.25;17.25;;;;;15.16;85.77;99882.97;5040858;28;45389;-78
2022/10/19 04:08:53;;;;;;;;;22.25;19.25;;;;;15.14;85.56;99882.19;5043174;28;46227;-78
2022/10/19 04:11:22;;;;;;;;;19.25;18.00;;;;;15.13;86.22;99887.56;5048622;28;45701;-78
2022/10/19 04:13:49;;;;;;;;;19.75;17.25;;;;;15.11;86.08;99889.44;5046963;28;45444;-77
2022/10/19 04:16:14;;;;;;;;;17.00;13.75;;;;;15.10;86.14;99893.03;5045313;28;45374;-78
2022/10/19 04:18:40;;;;;;;;;18.00;15.25;;;;;15.07;85.85;99882.56;5046331;28;45952;-78
2022/10/19 04:21:05;;;;;;;;;15.75;14.75;;;;;15.05;86.08;99887.06;5043029;28;45532;-78
2022/10/19 04:23:34;;;;;;;;;17.25;17.25;;;;;15.02;86.18;99888.94;5041442;28;45314;-78
2022/10/19 04:26:05;;;;;;;;;19.25;17.25;;;;;15.00;85.98;99890.81;5047623;28;45443;-78
2022/10/19 04:28:31;;;;;;;;;18.00;18.00;;;;;14.95;86.23;99884.81;5043824;27;45473;-78
2022/10/19 04:30:56;;;;;;;;;18.75;15.75;;;;;14.95;86.40;99883.97;5041853;28;45524;-78
2022/10/19 04:33:22;;;;;;;;;13.50;13.50;;;;;14.93;86.16;99884.03;5049137;28;45389;-78
2022/10/19 04:35:47;;;;;;;;;18.00;17.00;;;;;14.92;86.64;99892.06;5042494;28;45488;-78
2022/10/19 04:38:13;;;;;;;;;19.25;16.50;;;;;14.90;86.52;99884.19;5041968;28;46154;-77
2022/10/19 04:40:38;;;;;;;;;20.75;17.50;;;;;14.89;86.96;99886.91;5047255;28;45528;-78
2022/10/19 04:43:04;;;;;;;;;25.50;22.00;;;;;14.89;86.63;99881.63;5051854;28;45525;-78
2022/10/19 04:45:30;;;;;;;;;21.50;19.50;;;;;14.85;86.46;99883.53;5041480;28;45523;-78
2022/10/19 04:47:55;;;;;;;;;24.00;16.50;;;;;14.84;86.73;99880.94;5067219;28;47010;-78
2022/10/19 04:50:22;;;;;;;;;16.50;14.75;;;;;14.83;86.54;99882.75;5051388;28;45303;-78
2022/10/19 04:52:47;;;;;;;;;15.00;14.00;;;;;14.81;86.69;99878.44;5052794;27;45662;-78
2022/10/19 04:55:13;;;;;;;;;18.25;16.50;;;;;14.79;86.58;99877.63;5044017;28;45488;-78
2022/10/19 04:57:38;;;;;;;;;16.25;14.75;;;;;14.75;86.95;99873.38;5049786;28;46675;-78
2022/10/19 05:00:04;;;;;;;;;16.50;15.75;;;;;14.76;86.70;99886.59;5048963;28;45356;-78
2022/10/19 05:02:30;;;;;;;;;15.00;13.75;;;;;14.72;86.71;99885.03;5048542;28;45452;-78
2022/10/19 05:04:55;;;;;;;;;17.25;16.25;;;;;14.69;87.28;99890.47;5062678;28;45384;-79
2022/10/19 05:07:21;;;;;;;;;18.00;15.50;;;;;14.69;87.08;99889.59;5049184;28;45405;-79
2022/10/19 05:09:46;;;;;;;;;17.00;15.75;;;;;14.68;87.34;99886.09;5047412;28;45504;-78
2022/10/19 05:12:11;;;;;;;;;22.25;19.25;;;;;14.68;87.44;99883.44;5053443;28;45494;-78
2022/10/19 05:14:37;;;;;;;;;16.50;16.25;;;;;14.66;87.37;99886.16;5047581;28;45360;-78
2022/10/19 05:17:02;;;;;;;;;17.25;16.25;;;;;14.64;87.15;99884.50;5049863;28;45543;-78
2022/10/19 05:19:27;;;;;;;;;16.50;15.50;;;;;14.63;87.44;99883.63;5047937;28;45455;-78
2022/10/19 05:21:53;;;;;;;;;16.50;16.00;;;;;14.62;87.16;99883.69;5039945;28;45507;-78
2022/10/19 05:24:18;;;;;;;;;17.50;17.50;;;;;14.60;87.63;99880.25;5044755;28;45412;-78
2022/10/19 05:26:43;;;;;;;;;17.00;14.75;;;;;14.58;87.79;99875.00;5048672;28;47984;-78
2022/10/19 05:29:12;;;;;;;;;17.50;14.50;;;;;14.58;87.65;99874.13;5042972;28;45432;-78
2022/10/19 05:31:38;;;;;;;;;19.25;17.25;;;;;14.56;87.75;99884.84;5049114;28;45455;-78
2022/10/19 05:34:03;;;;;;;;;17.00;16.50;;;;;14.54;87.77;99884.06;5049557;28;45424;-78
2022/10/19 05:36:36;;;;;;;;;15.50;14.50;;;;;14.53;87.94;99876.16;5045868;28;46258;-79
2022/10/19 05:39:08;;;;;;;;;18.00;16.00;;;;;14.51;87.89;99878.88;5045733;28;45380;-79
2022/10/19 05:41:33;;;;;;;;;18.00;15.25;;;;;14.52;87.75;99877.09;5049870;28;45455;-72
2022/10/19 05:44:00;;;;;;;;;15.75;15.00;;;;;14.54;87.75;99870.78;5050159;28;45334;-73
2022/10/19 05:46:28;;;;;;;;;20.75;15.25;;;;;14.55;87.68;99869.00;5053577;28;45444;-72
2022/10/19 05:48:55;;;;;;;;;17.75;16.75;;;;;14.56;88.03;99865.41;5055016;28;45404;-72
2022/10/19 05:51:22;;;;;;;;;18.50;16.25;;;;;14.57;88.01;99862.69;5053636;27;45493;-74
2022/10/19 05:59:32;;;;;;;;;18.25;16.25;;;;;14.65;87.85;99857.88;5042170;28;45518;-73
2022/10/19 06:01:57;;;;;;;;;23.00;19.75;;;;;14.66;87.93;99861.41;5047984;28;45462;-72
2022/10/19 06:04:23;;;;;;;;;23.75;22.50;;;;;14.70;88.04;99862.13;5047771;28;45454;-73
2022/10/19 06:06:48;;;;;;;;;23.00;20.75;;;;;14.72;87.81;99853.19;5044093;28;46351;-72
2022/10/19 06:09:14;;;;;;;;;22.25;18.75;;;;;14.74;87.84;99861.94;5047043;28;45511;-72
2022/10/19 06:11:41;;;;;;;;;22.25;20.00;;;;;14.75;87.75;99860.13;5045175;28;45417;-72
2022/10/19 06:14:11;;;;;;;;;16.75;16.25;;;;;14.77;87.77;99850.28;5066810;28;45619;-72
2022/10/19 06:16:36;;;;;;;;;19.00;17.00;;;;;14.78;87.07;99852.88;5044646;28;45554;-72
2022/10/19 06:19:04;;;;;;;;;21.75;19.00;;;;;14.80;86.48;99850.16;5043212;28;45438;-72
2022/10/19 06:21:31;;;;;;;;;17.50;16.25;;;;;14.81;86.09;99858.06;5051871;28;45523;-74
2022/10/19 06:23:59;;;;;;;;;12.25;12.00;;;;;14.82;85.80;99854.47;5055166;28;45552;-73
2022/10/19 06:26:26;;;;;;;;;17.75;14.25;;;;;14.83;85.50;99847.38;5051379;28;45663;-73
2022/10/19 06:28:54;;;;;;;;;8.80;6.40;;;;;14.85;84.58;99838.41;5055152;28;45368;-73
2022/10/19 06:31:20;;;;;;;;;12.75;12.00;;;;;14.84;83.41;99849.94;5049846;28;45355;-72
2022/10/19 06:33:45;;;;;;;;;15.00;12.50;;;;;14.86;83.93;99856.06;5054363;28;45328;-72
2022/10/19 06:36:17;;;;;;;;;19.25;14.50;;;;;14.89;84.49;99855.06;5050100;28;46472;-73
2022/10/19 06:38:43;;;;;;;;;18.00;13.00;;;;;14.90;84.66;99844.38;5055718;28;45406;-72
2022/10/19 06:41:10;;;;;;;;;16.25;14.00;;;;;14.93;84.10;99846.00;5045753;28;45432;-73
2022/10/19 06:43:36;;;;;;;;;15.25;13.75;;;;;14.97;82.96;99843.13;5054878;28;45582;-73
2022/10/19 06:46:06;;;;;;;;;18.00;14.75;;;;;15.03;82.65;99847.31;5055127;28;45350;-73
2022/10/19 06:48:32;;;;;;;;;13.80;12.00;;;;;15.07;82.83;99851.56;5055409;28;45419;-72
2022/10/19 06:51:00;;;;;;;;;19.75;16.00;;;;;15.10;83.05;99840.75;5055091;28;45384;-73
2022/10/19 06:53:26;;;;;;;;;18.75;17.25;;;;;15.16;83.77;99840.50;5054860;28;45589;-71
2022/10/19 06:55:51;;;;;;;;;13.00;12.00;;;;;15.21;84.53;99841.13;5053096;28;47268;-72
2022/10/19 06:58:17;;;;;;;;;19.50;19.25;;;;;15.27;84.53;99842.63;5055018;28;45364;-72
2022/10/19 07:00:42;;;;;;;;;24.25;20.50;;;;;15.31;84.44;99850.38;5054848;28;45443;-74
2022/10/19 07:03:07;;;;;;;;;20.25;18.75;;;;;15.34;84.78;99847.59;5055477;28;45443;-74
2022/10/19 07:05:33;;;;;;;;;20.50;18.00;;;;;15.40;84.47;99853.53;5051980;28;45355;-73
2022/10/19 07:07:58;;;;;;;;;21.25;18.50;;;;;15.44;84.49;99848.00;5054731;28;45424;-72
2022/10/19 07:10:24;;;;;;;;;28.00;23.50;;;;;15.50;84.32;99844.19;5083563;27;45486;-73
2022/10/19 07:12:49;;;;;;;;;22.50;18.25;;;;;15.52;84.12;99843.19;5053812;28;45459;-73
2022/10/19 07:15:14;;;;;;;;;20.50;19.75;;;;;15.56;84.10;99846.59;5054859;28;46239;-74
2022/10/19 07:17:40;;;;;;;;;22.75;21.00;;;;;15.58;83.79;99832.28;5055096;28;45443;-73
2022/10/19 07:20:06;;;;;;;;;23.25;18.25;;;;;15.64;83.88;99839.06;5054105;28;45652;-73
2022/10/19 07:22:31;;;;;;;;;21.25;20.50;;;;;15.66;83.45;99832.75;5054707;28;45564;-73
2022/10/19 07:24:57;;;;;;;;;19.75;18.00;;;;;15.72;83.67;99833.41;5053648;28;45501;-73
2022/10/19 07:27:23;;;;;;;;;21.25;20.00;;;;;15.75;83.28;99826.13;5054887;28;45794;-73
2022/10/19 07:29:48;;;;;;;;;22.00;20.75;;;;;15.79;83.52;99822.38;5054275;28;45439;-73
2022/10/19 07:32:13;;;;;;;;;23.25;19.75;;;;;15.83;83.21;99820.41;5054998;28;45613;-74
2022/10/19 07:34:39;;;;;;;;;18.75;18.00;;;;;15.86;82.92;99822.94;5053375;28;45532;-74
2022/10/19 07:37:04;;;;;;;;;22.50;15.75;;;;;15.87;82.55;99829.97;5050883;28;45447;-73
2022/10/19 07:39:30;;;;;;;;;23.25;18.75;;;;;15.86;82.90;99842.41;5053114;28;45537;-73
2022/10/19 07:41:55;;;;;;;;;19.75;17.50;;;;;15.88;82.58;99842.34;5046613;28;45379;-73
2022/10/19 07:44:20;;;;;;;;;21.00;18.50;;;;;15.88;82.70;99832.56;5053980;28;45691;-73
2022/10/19 07:46:46;;;;;;;;;26.50;23.25;;;;;15.90;82.51;99843.97;5046263;28;45321;-73
2022/10/19 07:49:17;;;;;;;;;29.00;26.00;;;;;15.91;82.54;99837.72;5049391;28;45359;-74
2022/10/19 07:51:43;;;;;;;;;34.00;28.75;;;;;15.92;82.64;99834.09;5049521;28;45654;-73
2022/10/19 07:54:09;;;;;;;;;37.50;29.75;;;;;15.97;82.43;99831.22;5054127;28;46524;-73
2022/10/19 07:56:34;;;;;;;;;29.00;26.50;;;;;15.99;82.57;99834.66;5051910;28;45426;-73
2022/10/19 07:59:00;;;;;;;;;24.50;22.50;;;;;16.02;82.13;99830.06;5053500;28;45561;-73
2022/10/19 08:01:29;;;;;;;;;19.50;17.25;;;;;16.04;82.13;99830.84;5051058;28;45439;-74
2022/10/19 08:03:56;;;;;;;;;25.50;22.00;;;;;16.08;81.73;99831.56;5054662;28;46554;-73
2022/10/19 08:06:23;;;;;;;;;20.75;18.25;;;;;16.11;81.84;99839.34;5052923;28;45410;-73
2022/10/19 08:08:48;;;;;;;;;19.75;18.00;;;;;16.16;81.80;99853.28;5054652;28;45411;-73
2022/10/19 08:11:20;;;;;;;;;18.50;14.75;;;;;16.20;81.52;99844.22;5052413;28;45365;-74
2022/10/19 08:13:46;;;;;;;;;19.25;16.50;;;;;16.23;81.28;99828.09;5053724;28;46359;-73
2022/10/19 08:16:27;;;;;;;;;22.75;21.00;;;;;16.29;81.55;99830.41;5053404;28;45465;-73
2022/10/19 08:18:57;;;;;;;;;26.25;24.25;;;;;16.34;81.00;99825.72;5053839;28;45359;-73
2022/10/19 08:21:23;;;;;;;;;29.50;28.75;;;;;16.38;80.76;99821.09;5046930;28;45295;-73
2022/10/19 08:23:48;;;;;;;;;27.00;24.50;;;;;16.42;81.07;99820.84;5054174;28;45558;-73
2022/10/19 08:26:13;;;;;;;;;32.67;29.00;;;;;16.48;81.20;99822.31;5054152;28;45368;-73
2022/10/19 08:28:39;;;;;;;;;33.33;30.00;;;;;16.53;80.91;99817.63;5053795;28;45497;-73
2022/10/19 08:31:13;;;;;;;;;29.75;25.00;;;;;16.60;80.63;99824.31;5046040;28;45435;-73
2022/10/19 08:33:39;;;;;;;;;28.75;24.25;;;;;16.65;80.30;99818.81;5050662;28;46352;-73
2022/10/19 08:36:06;;;;;;;;;19.25;16.25;;;;;16.68;80.32;99814.19;5051157;28;45447;-73
2022/10/19 08:38:34;;;;;;;;;26.75;23.75;;;;;16.73;80.10;99809.47;5053967;28;45401;-73
2022/10/19 08:41:10;;;;;;;;;24.50;20.25;;;;;16.79;79.92;99808.25;5052340;28;45429;-73
2022/10/19 08:43:45;;;;;;;;;26.75;20.75;;;;;16.84;80.02;99808.00;5053748;28;45498;-73
2022/10/19 08:46:23;;;;;;;;;22.40;18.40;;;;;16.91;80.13;99807.59;5083586;27;45481;-73
2022/10/19 08:48:49;;;;;;;;;19.75;18.75;;;;;16.97;79.71;99799.25;5054379;28;45488;-72
2022/10/19 08:51:14;;;;;;;;;20.50;18.00;;;;;17.02;79.37;99797.22;5051028;28;45467;-72
2022/10/19 08:53:48;;;;;;;;;21.50;19.50;;;;;17.07;78.50;99797.81;5053202;28;46246;-73
2022/10/19 08:56:30;;;;;;;;;22.40;15.40;;;;;17.11;78.64;99793.16;5051087;28;45496;-75
2022/10/19 08:59:20;;;;;;;;;11.25;11.25;;;;;17.16;77.54;99799.09;5053182;28;45500;-74
2022/10/19 09:01:45;;;;;;;;;15.00;12.75;;;;;17.21;77.53;99789.03;5051022;28;45314;-73
2022/10/19 09:04:37;;;;;;;;;14.75;12.25;;;;;17.29;77.77;99780.59;5053373;28;45627;-72
2022/10/19 09:07:21;;;;;;;;;14.80;12.80;;;;;17.36;77.13;99780.19;5049369;28;45573;-73
2022/10/19 09:10:01;;;;;;;;;17.75;15.25;;;;;17.43;76.90;99786.00;5053696;28;45571;-74
2022/10/19 09:12:58;;;;;;;;;14.25;11.50;;;;;17.49;76.36;99771.47;5052132;28;45459;-74
2022/10/19 09:15:42;;;;;;;;;13.00;13.00;;;;;17.55;75.79;99763.13;5052653;27;45656;-73
2022/10/19 09:18:17;;;;;;;;;12.40;9.80;;;;;17.60;75.21;99767.22;5058077;28;45362;-73
2022/10/19 09:20:47;;;;;;;;;14.50;12.75;;;;;17.65;75.01;99764.31;5047731;28;45392;-74
2022/10/19 09:23:26;;;;;;;;;2.25;0.00;;;;;17.72;75.21;99766.56;5053701;28;45500;-74
2022/10/19 09:25:52;;;;;;;;;13.75;12.00;;;;;17.77;74.96;99769.78;5051623;28;45427;-73
2022/10/19 09:28:48;;;;;;;;;13.00;11.80;;;;;17.86;74.88;99762.19;5052239;28;45458;-73
2022/10/19 09:31:23;;;;;;;;;16.75;14.00;;;;;17.94;74.33;99759.91;5063178;28;45507;-73
2022/10/19 09:33:56;;;;;;;;;15.75;13.25;;;;;18.01;73.67;99746.13;5057011;28;45368;-73
2022/10/19 09:36:26;;;;;;;;;13.75;11.75;;;;;18.07;73.67;99756.44;5057072;28;45826;-73
2022/10/19 09:38:52;;;;;;;;;15.40;13.40;;;;;18.15;73.14;99763.97;5056737;28;45495;-73
2022/10/19 09:41:20;;;;;;;;;16.75;13.25;;;;;18.22;72.39;99754.66;5056922;28;45411;-74
2022/10/19 09:43:52;;;;;;;;;18.75;15.50;;;;;18.31;72.59;99754.06;5056228;28;45481;-74
2022/10/19 09:46:29;;;;;;;;;16.50;13.75;;;;;18.40;71.93;99758.00;5056203;28;46400;-73
2022/10/19 09:49:00;;;;;;;;;16.80;13.80;;;;;18.48;71.52;99759.22;5056606;28;45428;-73
2022/10/19 09:51:25;;;;;;;;;16.50;13.25;;;;;18.56;70.61;99749.88;5041815;28;45445;-73
2022/10/19 09:53:54;;;;;;;;;18.00;17.25;;;;;18.64;70.81;99748.47;5056344;28;45379;-73
2022/10/19 09:56:22;;;;;;;;;13.00;12.20;;;;;18.73;70.11;99747.03;5054912;28;47038;-74
2022/10/19 09:58:57;;;;;;;;;10.00;10.00;;;;;18.82;69.93;99743.75;5054226;28;45412;-73
2022/10/19 10:01:33;;;;;;;;;12.80;11.60;;;;;18.91;69.62;99745.00;5056439;28;45368;-74
2022/10/19 10:04:17;;;;;;;;;17.25;15.00;;;;;19.01;68.95;99743.44;5056258;28;45549;-73
2022/10/19 10:06:45;;;;;;;;;15.50;13.25;;;;;19.09;68.62;99735.81;5056240;28;46565;-73
2022/10/19 10:09:16;;;;;;;;;13.80;12.00;;;;;19.17;68.21;99734.31;5055783;28;45376;-74
2022/10/19 10:11:44;;;;;;;;;14.00;13.40;;;;;19.25;66.86;99744.53;5056360;28;45397;-73
2022/10/19 10:14:16;;;;;;;;;15.40;12.40;;;;;19.33;66.78;99728.81;5056079;28;45459;-73
2022/10/19 10:16:41;;;;;;;;;10.60;9.80;;;;;19.40;66.74;99730.16;5056126;28;46386;-75
2022/10/19 10:19:11;;;;;;;;;10.50;9.00;;;;;19.48;65.28;99729.63;5056138;28;45409;-73
2022/10/19 10:21:47;;;;;;;;;20.00;15.25;;;;;19.56;65.72;99730.00;5055932;28;45352;-74
2022/10/19 10:24:12;;;;;;;;;13.20;9.80;;;;;19.65;65.43;99724.03;5055726;28;45430;-74
2022/10/19 10:26:49;;;;;;;;;13.75;12.00;;;;;19.73;65.00;99715.50;5088629;27;47186;-73
2022/10/19 10:29:22;;;;;;;;;10.80;10.40;;;;;19.81;65.01;99710.44;5055373;28;45385;-73
2022/10/19 10:31:56;;;;;;;;;13.00;9.80;;;;;19.90;65.42;99708.97;5055879;28;45381;-74
2022/10/19 10:34:29;;;;;;;;;11.50;9.25;;;;;19.98;64.43;99702.13;5055984;28;45431;-73
2022/10/19 10:36:56;;;;;;;;;11.00;9.40;;;;;20.06;63.69;99697.09;5056130;28;45578;-73
2022/10/19 10:39:23;;;;;;;;;8.00;7.00;;;;;20.14;63.13;99691.19;5055777;28;45494;-73
2022/10/19 10:41:49;;;;;;;;;11.00;9.60;;;;;20.22;62.69;99691.53;5055730;28;45372;-74
2022/10/19 10:44:25;;;;;;;;;11.75;11.25;;;;;20.31;62.89;99693.53;5054311;28;45453;-73
2022/10/19 10:46:58;;;;;;;;;14.60;12.60;;;;;20.38;62.85;99686.81;5055997;28;46170;-74
2022/10/19 10:49:27;;;;;;;;;12.40;11.60;;;;;20.46;62.70;99680.91;5055923;28;45426;-73
2022/10/19 10:51:56;;;;;;;;;15.25;13.50;;;;;20.55;62.02;99674.91;5054630;28;45406;-73
2022/10/19 10:54:29;;;;;;;;;12.00;11.00;;;;;20.65;62.15;99677.75;5055276;28;45522;-74
2022/10/19 10:57:17;;;;;;;;;14.25;11.00;;;;;20.74;61.81;99669.91;5053934;28;46919;-74
2022/10/19 10:59:48;;;;;;;;;9.80;8.40;;;;;20.87;61.29;99672.53;5055644;28;45296;-73
2022/10/19 11:02:24;;;;;;;;;10.60;8.40;;;;;20.94;60.74;99665.78;5053952;28;45467;-73
2022/10/19 11:05:01;;;;;;;;;15.50;12.75;;;;;21.03;60.95;99653.50;5055719;28;45446;-73
2022/10/19 11:07:29;;;;;;;;;11.25;10.00;;;;;21.11;60.93;99649.28;5053998;28;47816;-73
2022/10/19 11:09:56;;;;;;;;;10.00;8.80;;;;;21.19;60.50;99641.53;5055759;28;45490;-73
2022/10/19 11:12:40;;;;;;;;;8.20;7.80;;;;;21.31;58.89;99636.22;5055207;28;45310;-73
2022/10/19 11:15:18;;;;;;;;;12.50;10.00;;;;;21.39;58.94;99632.00;5055394;28;45318;-73
2022/10/19 11:18:03;;;;;;;;;9.80;9.80;;;;;21.46;59.00;99621.63;5054949;28;45683;-72
2022/10/19 11:20:31;;;;;;;;;14.00;12.20;;;;;21.55;59.01;99612.88;5054790;28;45477;-73
2022/10/19 11:23:04;;;;;;;;;9.40;9.40;;;;;21.62;58.91;99614.09;5054831;28;45387;-73
2022/10/19 11:25:54;;;;;;;;;8.00;8.00;;;;;21.70;57.97;99602.78;5042029;28;45444;-74
2022/10/19 11:28:42;;;;;;;;;9.80;9.20;;;;;21.78;56.99;99595.00;5054563;28;46170;-73
2022/10/19 11:31:17;;;;;;;;;11.20;9.60;;;;;21.84;57.10;99587.28;5054991;28;45381;-74
2022/10/19 11:34:04;;;;;;;;;7.60;7.20;;;;;21.93;56.31;99580.34;5055310;28;45430;-74
2022/10/19 11:36:56;;;;;;;;;9.60;7.80;;;;;22.02;56.31;99584.16;5054956;28;45402;-74